Time;durP1;ratioP1;P1;durP2;ratioP2;P2;SDS_P1;SDS_P2;PMS_P1;PMS_P2;Temp;Humidity;BMP_temperature;BMP_pressure;BME280_temperature;BME280_humidity;BME280_pressure;Samples;Min_cycle;Max_cycle;Signal;HPM_P1;HPM_P2
2023/01/17 00:01:53;;;;;;;0.52;0.30;;;;;;;;;;5021601;28;20105;-80
2023/01/17 00:09:53;;;;;;;0.90;0.30;;;;;;;;;;5017278;28;20374;-80
2023/01/17 00:12:20;;;;;;;1.27;0.38;;;;;;;;;;5016422;28;20058;-82
2023/01/17 00:14:46;;;;;;;0.22;0.20;;;;;;;;;;5015546;28;20084;-81
2023/01/17 00:17:13;;;;;;;0.25;0.20;;;;;;;;;;5016392;28;20056;-80
2023/01/17 01:35:35;;;;;;;0.40;0.20;;;;;;;;;;5013683;28;20558;-81
2023/01/17 01:38:02;;;;;;;0.38;0.20;;;;;;;;;;5015267;28;20046;-81
2023/01/17 01:40:28;;;;;;;0.40;0.20;;;;;;;;;;5015281;28;20062;-82
2023/01/17 01:42:56;;;;;;;0.52;0.30;;;;;;;;;;5015134;28;20053;-80
2023/01/17 01:45:24;;;;;;;0.68;0.22;;;;;;;;;;5014507;28;20049;-80
2023/01/17 01:47:53;;;;;;;0.30;0.20;;;;;;;;;;5015665;28;20413;-82
2023/01/17 01:50:20;;;;;;;0.20;0.20;;;;;;;;;;5013906;28;20524;-81
2023/01/17 01:52:50;;;;;;;0.30;0.20;;;;;;;;;;5014741;28;20072;-81
2023/01/17 01:55:17;;;;;;;0.47;0.20;;;;;;;;;;5014035;28;20096;-80
2023/01/17 01:57:46;;;;;;;0.38;0.30;;;;;;;;;;5015347;28;20095;-80
2023/01/17 02:00:15;;;;;;;0.50;0.30;;;;;;;;;;5015316;28;20069;-80
2023/01/17 02:02:42;;;;;;;1.52;0.40;;;;;;;;;;5013960;28;20196;-80
2023/01/17 02:05:11;;;;;;;0.60;0.25;;;;;;;;;;4994942;28;20109;-79
2023/01/17 02:07:42;;;;;;;0.73;0.40;;;;;;;;;;5015519;28;20057;-80
2023/01/17 02:10:09;;;;;;;1.05;0.40;;;;;;;;;;5016300;28;20058;-80
2023/01/17 02:12:36;;;;;;;0.50;0.40;;;;;;;;;;4998693;28;20071;-81
2023/01/17 02:15:04;;;;;;;0.30;0.20;;;;;;;;;;5014286;28;20478;-80
2023/01/17 02:17:34;;;;;;;0.57;0.30;;;;;;;;;;4996362;28;20053;-81
2023/01/17 02:20:19;;;;;;;2.90;0.50;;;;;;;;;;4997396;28;20061;-82
2023/01/17 02:22:57;;;;;;;0.30;0.20;;;;;;;;;;5014929;28;20461;-81
2023/01/17 02:25:30;;;;;;;1.48;0.40;;;;;;;;;;5013609;28;20052;-83
2023/01/17 02:28:15;;;;;;;0.40;0.30;;;;;;;;;;5014440;28;20049;-80
2023/01/17 02:30:44;;;;;;;0.82;0.38;;;;;;;;;;5013442;28;20057;-82
2023/01/17 02:33:18;;;;;;;0.43;0.35;;;;;;;;;;5014202;28;20068;-82
2023/01/17 02:35:44;;;;;;;0.90;0.38;;;;;;;;;;5022141;28;20037;-83
2023/01/17 02:38:11;;;;;;;0.70;0.38;;;;;;;;;;5015007;28;20088;-82
2023/01/17 02:40:43;;;;;;;0.68;0.30;;;;;;;;;;5019808;28;20077;-84
2023/01/17 02:43:12;;;;;;;0.50;0.38;;;;;;;;;;5008537;28;20060;-80
2023/01/17 02:45:39;;;;;;;0.85;0.50;;;;;;;;;;5007542;28;20046;-82
2023/01/17 02:48:07;;;;;;;0.82;0.40;;;;;;;;;;5030843;28;20050;-82
2023/01/17 02:50:41;;;;;;;0.70;0.43;;;;;;;;;;5028952;28;20084;-84
2023/01/17 02:53:07;;;;;;;0.80;0.60;;;;;;;;;;5030813;28;20073;-83
2023/01/17 02:55:37;;;;;;;0.38;0.38;;;;;;;;;;5024602;28;20093;-81
2023/01/17 02:58:30;;;;;;;0.77;0.45;;;;;;;;;;5028424;28;20046;-84
2023/01/17 03:01:08;;;;;;;1.85;0.60;;;;;;;;;;5024838;28;20492;-81
2023/01/17 03:03:54;;;;;;;1.42;0.60;;;;;;;;;;5028738;28;20288;-81
2023/01/17 03:06:24;;;;;;;0.93;0.60;;;;;;;;;;5028203;28;20134;-81
2023/01/17 03:08:51;;;;;;;1.13;0.45;;;;;;;;;;5026970;28;20132;-80
2023/01/17 03:11:17;;;;;;;0.85;0.50;;;;;;;;;;5014620;28;20049;-79
2023/01/17 03:13:44;;;;;;;2.38;1.10;;;;;;;;;;4996647;28;20222;-81
2023/01/17 03:16:13;;;;;;;3.08;0.75;;;;;;;;;;5011806;28;20149;-80
2023/01/17 03:18:40;;;;;;;2.10;0.70;;;;;;;;;;5014959;28;20058;-78
2023/01/17 03:21:07;;;;;;;2.25;0.70;;;;;;;;;;5014260;28;20490;-79
2023/01/17 03:23:33;;;;;;;1.48;0.80;;;;;;;;;;5013742;28;20137;-80
2023/01/17 03:26:00;;;;;;;4.15;0.82;;;;;;;;;;5013296;28;20525;-81
2023/01/17 03:28:27;;;;;;;1.08;0.68;;;;;;;;;;5013260;28;20073;-80
2023/01/17 03:30:54;;;;;;;3.05;0.85;;;;;;;;;;5013677;28;20141;-80
2023/01/17 03:33:20;;;;;;;3.35;1.17;;;;;;;;;;5004831;28;20046;-81
2023/01/17 03:35:47;;;;;;;0.85;0.60;;;;;;;;;;5013856;28;20049;-80
2023/01/17 03:38:14;;;;;;;3.22;0.98;;;;;;;;;;5013393;28;20482;-80
2023/01/17 03:40:40;;;;;;;1.25;0.80;;;;;;;;;;5011644;28;20050;-80
2023/01/17 03:43:07;;;;;;;3.15;0.82;;;;;;;;;;4995305;28;20057;-81
2023/01/17 03:45:33;;;;;;;2.97;0.90;;;;;;;;;;5012133;28;20053;-82
2023/01/17 03:48:00;;;;;;;2.67;0.77;;;;;;;;;;5016801;28;20053;-80
2023/01/17 03:50:27;;;;;;;3.20;1.10;;;;;;;;;;4997413;28;20502;-80
2023/01/17 03:52:53;;;;;;;2.28;0.90;;;;;;;;;;5014635;28;20076;-81
2023/01/17 03:55:19;;;;;;;2.65;1.00;;;;;;;;;;5016412;28;20064;-81
2023/01/17 03:57:46;;;;;;;2.05;1.02;;;;;;;;;;5019065;28;20415;-83
2023/01/17 04:00:12;;;;;;;3.38;0.80;;;;;;;;;;5020485;28;20054;-84
2023/01/17 04:02:39;;;;;;;4.32;1.05;;;;;;;;;;5016027;28;20052;-85
2023/01/17 04:05:06;;;;;;;1.85;0.80;;;;;;;;;;5015844;28;20050;-83
2023/01/17 04:07:32;;;;;;;2.42;0.90;;;;;;;;;;5014149;28;20462;-82
2023/01/17 04:09:59;;;;;;;3.40;1.00;;;;;;;;;;5013347;28;20064;-81
2023/01/17 04:12:25;;;;;;;3.25;1.00;;;;;;;;;;5019886;28;20078;-81
2023/01/17 04:14:52;;;;;;;1.85;0.88;;;;;;;;;;5025955;28;20054;-81
2023/01/17 04:17:19;;;;;;;3.15;0.90;;;;;;;;;;5020517;28;20142;-80
2023/01/17 04:19:45;;;;;;;1.20;0.90;;;;;;;;;;5018441;28;20052;-79
2023/01/17 04:22:12;;;;;;;2.25;1.00;;;;;;;;;;5020281;28;20073;-79
2023/01/17 04:24:43;;;;;;;2.38;0.93;;;;;;;;;;5017562;28;20221;-81
2023/01/17 04:27:13;;;;;;;1.90;1.00;;;;;;;;;;5021246;28;20078;-80
2023/01/17 04:29:40;;;;;;;1.83;0.98;;;;;;;;;;5018055;28;20054;-80
2023/01/17 04:32:06;;;;;;;1.88;0.90;;;;;;;;;;5019439;28;20128;-80
2023/01/17 04:34:33;;;;;;;2.15;0.90;;;;;;;;;;5020834;28;20038;-81
2023/01/17 04:37:00;;;;;;;1.70;1.00;;;;;;;;;;5022810;28;20499;-81
2023/01/17 04:39:26;;;;;;;1.63;0.98;;;;;;;;;;5018391;28;20046;-82
2023/01/17 04:41:53;;;;;;;2.15;1.05;;;;;;;;;;5002762;28;20057;-81
2023/01/17 04:44:20;;;;;;;2.13;1.00;;;;;;;;;;5001348;28;20082;-81
2023/01/17 04:46:46;;;;;;;3.35;1.20;;;;;;;;;;5018091;28;20096;-81
2023/01/17 04:49:13;;;;;;;2.50;1.10;;;;;;;;;;5018791;28;20133;-82
2023/01/17 04:51:39;;;;;;;1.45;0.90;;;;;;;;;;5017369;28;20099;-80
2023/01/17 04:54:06;;;;;;;2.78;1.05;;;;;;;;;;4999628;28;20076;-81
2023/01/17 04:56:32;;;;;;;3.33;1.20;;;;;;;;;;5017261;28;20096;-80
2023/01/17 04:58:59;;;;;;;2.83;0.90;;;;;;;;;;5016535;28;20050;-81
2023/01/17 05:01:25;;;;;;;3.63;1.08;;;;;;;;;;5022483;28;20112;-81
2023/01/17 05:03:52;;;;;;;3.65;1.30;;;;;;;;;;5022591;28;20060;-82
2023/01/17 05:06:21;;;;;;;1.75;0.88;;;;;;;;;;5022917;28;20058;-81
2023/01/17 05:08:49;;;;;;;3.95;1.08;;;;;;;;;;5026920;28;20061;-81
2023/01/17 05:11:16;;;;;;;2.00;1.17;;;;;;;;;;5020052;28;20054;-82
2023/01/17 05:13:43;;;;;;;2.35;0.80;;;;;;;;;;5025730;28;20042;-82
2023/01/17 05:16:09;;;;;;;6.03;1.05;;;;;;;;;;5021563;28;20057;-81
2023/01/17 05:18:36;;;;;;;3.03;1.10;;;;;;;;;;5022026;28;20478;-77
2023/01/17 05:21:03;;;;;;;3.08;1.00;;;;;;;;;;5015394;28;20058;-77
2023/01/17 05:23:29;;;;;;;5.47;1.25;;;;;;;;;;5014359;28;20069;-77
2023/01/17 05:25:55;;;;;;;4.15;0.98;;;;;;;;;;5011168;28;20184;-78
2023/01/17 05:28:22;;;;;;;5.47;1.23;;;;;;;;;;5012653;28;20046;-78
2023/01/17 05:30:48;;;;;;;3.40;1.30;;;;;;;;;;5011259;28;20405;-78
2023/01/17 05:33:15;;;;;;;1.95;0.95;;;;;;;;;;5013928;28;20076;-79
2023/01/17 05:35:41;;;;;;;1.77;1.05;;;;;;;;;;5022375;28;20494;-78
2023/01/17 05:38:08;;;;;;;4.53;1.05;;;;;;;;;;5031118;28;20046;-78
2023/01/17 05:40:34;;;;;;;3.88;1.08;;;;;;;;;;5032780;28;20041;-78
2023/01/17 05:43:02;;;;;;;2.95;1.15;;;;;;;;;;5034033;28;20041;-78
2023/01/17 05:45:29;;;;;;;3.20;1.10;;;;;;;;;;5032908;28;20049;-79
2023/01/17 05:47:57;;;;;;;2.53;1.10;;;;;;;;;;5017034;28;20046;-78
2023/01/17 05:50:26;;;;;;;4.00;1.35;;;;;;;;;;5013497;28;20126;-78
2023/01/17 05:52:54;;;;;;;4.32;1.20;;;;;;;;;;5012814;28;20076;-80
2023/01/17 05:55:21;;;;;;;2.25;1.30;;;;;;;;;;5014432;28;20072;-78
2023/01/17 05:57:48;;;;;;;2.80;1.20;;;;;;;;;;5005718;28;20049;-79
2023/01/17 06:00:15;;;;;;;2.85;1.30;;;;;;;;;;4986306;28;20176;-78
2023/01/17 06:02:42;;;;;;;4.00;1.30;;;;;;;;;;5006237;28;20105;-80
2023/01/17 06:05:09;;;;;;;2.33;1.20;;;;;;;;;;5005479;28;20133;-79
2023/01/17 06:07:35;;;;;;;2.03;1.15;;;;;;;;;;5010848;28;20511;-79
2023/01/17 06:10:02;;;;;;;2.35;1.15;;;;;;;;;;5004751;28;20065;-79
2023/01/17 06:12:29;;;;;;;4.63;1.30;;;;;;;;;;5005554;28;20046;-78
2023/01/17 06:14:55;;;;;;;2.33;1.02;;;;;;;;;;5002521;28;20077;-78
2023/01/17 06:17:21;;;;;;;3.13;1.05;;;;;;;;;;5004572;28;20065;-77
2023/01/17 06:19:48;;;;;;;4.95;1.00;;;;;;;;;;4993114;28;20267;-78
2023/01/17 06:22:14;;;;;;;1.92;1.05;;;;;;;;;;4993426;28;20141;-77
2023/01/17 06:24:42;;;;;;;5.82;1.10;;;;;;;;;;4975697;28;20050;-78
2023/01/17 06:27:09;;;;;;;3.25;1.08;;;;;;;;;;4995621;28;20054;-78
2023/01/17 06:29:35;;;;;;;2.80;1.10;;;;;;;;;;4994577;28;20150;-78
2023/01/17 06:32:02;;;;;;;2.88;1.05;;;;;;;;;;4994100;28;20149;-78
2023/01/17 06:34:28;;;;;;;3.95;1.00;;;;;;;;;;5020609;28;20057;-79
2023/01/17 06:36:55;;;;;;;4.97;1.08;;;;;;;;;;5028526;28;20045;-79
2023/01/17 06:39:22;;;;;;;2.80;1.08;;;;;;;;;;5032149;28;20111;-78
2023/01/17 06:41:48;;;;;;;2.28;1.25;;;;;;;;;;5031778;28;20049;-78
2023/01/17 06:44:14;;;;;;;2.10;1.10;;;;;;;;;;5033173;28;20053;-78
2023/01/17 06:46:42;;;;;;;6.53;1.42;;;;;;;;;;5031421;28;20422;-79
2023/01/17 06:49:08;;;;;;;4.97;1.58;;;;;;;;;;5032925;28;20077;-78
2023/01/17 06:51:35;;;;;;;4.00;1.40;;;;;;;;;;5032521;28;20565;-79
2023/01/17 06:54:01;;;;;;;4.32;1.30;;;;;;;;;;5031556;28;20067;-78
2023/01/17 06:56:29;;;;;;;8.60;1.70;;;;;;;;;;5032095;28;20129;-78
2023/01/17 06:58:56;;;;;;;5.55;1.60;;;;;;;;;;5032897;28;20105;-78
2023/01/17 07:01:22;;;;;;;3.95;1.40;;;;;;;;;;5032591;28;20504;-78
2023/01/17 07:03:51;;;;;;;2.70;1.30;;;;;;;;;;5031497;28;20049;-76
2023/01/17 07:06:17;;;;;;;1.90;1.20;;;;;;;;;;5033442;28;20045;-79
2023/01/17 07:08:44;;;;;;;5.95;2.17;;;;;;;;;;5026803;28;20509;-78
2023/01/17 07:11:10;;;;;;;2.60;1.20;;;;;;;;;;5023854;28;20113;-78
2023/01/17 07:13:37;;;;;;;2.53;1.30;;;;;;;;;;5024791;28;20038;-78
2023/01/17 07:16:04;;;;;;;2.80;1.10;;;;;;;;;;5019123;28;20050;-79
2023/01/17 07:18:31;;;;;;;4.15;1.35;;;;;;;;;;5033968;28;20512;-78
2023/01/17 07:20:57;;;;;;;3.80;1.30;;;;;;;;;;5038537;28;20096;-79
2023/01/17 07:23:24;;;;;;;6.25;1.60;;;;;;;;;;5036167;28;20050;-78
2023/01/17 07:25:51;;;;;;;2.20;1.33;;;;;;;;;;5013819;28;20121;-78
2023/01/17 07:28:17;;;;;;;5.45;1.35;;;;;;;;;;5033655;28;20320;-79
2023/01/17 07:30:44;;;;;;;3.83;1.30;;;;;;;;;;5022625;28;20133;-79
2023/01/17 07:33:10;;;;;;;3.53;1.27;;;;;;;;;;5019988;28;20143;-78
2023/01/17 07:35:37;;;;;;;4.65;1.20;;;;;;;;;;5023384;28;20042;-79
2023/01/17 07:38:12;;;;;;;4.22;1.13;;;;;;;;;;5035131;28;20057;-79
2023/01/17 07:40:39;;;;;;;;;;;;;;;;;;5035609;28;20101;-80
2023/01/17 07:43:14;;;;;;;4.05;1.27;;;;;;;;;;5035450;28;20341;-79
2023/01/17 07:45:44;;;;;;;3.88;1.60;;;;;;;;;;5032733;28;20687;-78
2023/01/17 07:48:11;;;;;;;3.97;1.30;;;;;;;;;;5037491;28;20525;-78
2023/01/17 07:50:37;;;;;;;1.98;1.10;;;;;;;;;;5037328;28;20065;-78
2023/01/17 07:53:04;;;;;;;3.63;1.33;;;;;;;;;;5036117;28;20077;-79
2023/01/17 07:55:30;;;;;;;3.72;1.35;;;;;;;;;;5037546;28;20056;-79
2023/01/17 07:57:57;;;;;;;3.70;1.40;;;;;;;;;;5030977;28;20118;-81
2023/01/17 08:00:26;;;;;;;3.45;1.38;;;;;;;;;;5027262;28;20084;-78
2023/01/17 08:02:56;;;;;;;5.30;1.30;;;;;;;;;;5028690;28;20061;-78
2023/01/17 08:05:23;;;;;;;3.65;1.25;;;;;;;;;;5028386;28;20117;-80
2023/01/17 08:07:50;;;;;;;3.00;1.23;;;;;;;;;;5026802;28;20509;-77
2023/01/17 08:10:16;;;;;;;5.68;1.70;;;;;;;;;;5017066;28;20054;-79
2023/01/17 08:12:47;;;;;;;4.47;1.63;;;;;;;;;;5018228;28;20060;-78
2023/01/17 08:15:14;;;;;;;3.35;1.17;;;;;;;;;;5014996;28;20046;-80
2023/01/17 08:17:47;;;;;;;3.05;1.30;;;;;;;;;;5023943;28;20153;-78
2023/01/17 08:20:14;;;;;;;2.40;1.10;;;;;;;;;;5032150;28;20128;-79
2023/01/17 08:22:44;;;;;;;6.22;1.60;;;;;;;;;;5042201;28;20061;-79
2023/01/17 08:25:11;;;;;;;2.95;1.30;;;;;;;;;;5042770;28;20049;-79
2023/01/17 08:27:37;;;;;;;2.33;1.30;;;;;;;;;;5039668;28;20137;-78
2023/01/17 08:30:05;;;;;;;4.25;1.20;;;;;;;;;;5037877;28;20052;-78
2023/01/17 08:32:32;;;;;;;4.78;1.30;;;;;;;;;;5018694;28;20056;-79
2023/01/17 08:34:58;;;;;;;4.25;1.33;;;;;;;;;;5026216;28;20042;-79
2023/01/17 08:37:25;;;;;;;2.05;1.13;;;;;;;;;;5036344;28;20048;-78
2023/01/17 08:39:51;;;;;;;2.65;1.00;;;;;;;;;;5036864;28;20532;-80
2023/01/17 08:42:17;;;;;;;2.53;0.95;;;;;;;;;;5039457;28;20501;-80
2023/01/17 08:44:44;;;;;;;1.92;0.95;;;;;;;;;;5037767;28;20063;-80
2023/01/17 08:47:10;;;;;;;4.50;1.10;;;;;;;;;;5038473;28;20053;-80
2023/01/17 08:49:37;;;;;;;4.97;1.05;;;;;;;;;;5040005;28;20053;-80
2023/01/17 08:52:04;;;;;;;3.60;1.17;;;;;;;;;;5037346;28;20059;-78
2023/01/17 08:54:30;;;;;;;2.60;1.30;;;;;;;;;;5036175;28;20075;-80
2023/01/17 08:56:57;;;;;;;3.38;1.05;;;;;;;;;;5040353;28;20057;-80
2023/01/17 08:59:23;;;;;;;6.43;1.65;;;;;;;;;;5039135;28;20048;-79
2023/01/17 09:01:51;;;;;;;3.47;1.30;;;;;;;;;;5038131;28;20048;-79
2023/01/17 09:04:17;;;;;;;4.57;1.20;;;;;;;;;;5037257;28;20435;-78
2023/01/17 09:06:46;;;;;;;1.48;0.90;;;;;;;;;;5034714;28;20517;-78
2023/01/17 09:09:12;;;;;;;3.72;1.27;;;;;;;;;;5033624;28;20755;-78
2023/01/17 09:11:39;;;;;;;2.17;1.08;;;;;;;;;;5036210;28;20046;-79
2023/01/17 09:14:05;;;;;;;3.92;1.15;;;;;;;;;;5035877;28;20664;-78
2023/01/17 09:16:32;;;;;;;3.30;1.23;;;;;;;;;;5033342;28;20072;-81
2023/01/17 09:18:58;;;;;;;4.47;1.05;;;;;;;;;;5037064;28;20096;-80
2023/01/17 09:21:25;;;;;;;1.50;0.82;;;;;;;;;;5037425;28;20049;-80
2023/01/17 09:23:52;;;;;;;2.33;0.90;;;;;;;;;;5034017;28;20064;-78
2023/01/17 09:26:23;;;;;;;2.58;0.98;;;;;;;;;;5017020;28;20045;-79
2023/01/17 09:28:49;;;;;;;2.72;0.95;;;;;;;;;;5034814;28;20081;-78
2023/01/17 09:31:16;;;;;;;3.47;0.95;;;;;;;;;;5032517;28;20050;-79
2023/01/17 09:33:43;;;;;;;3.05;1.00;;;;;;;;;;5025404;28;20049;-78
2023/01/17 09:36:10;;;;;;;1.88;0.80;;;;;;;;;;5023090;28;20061;-78
2023/01/17 09:38:36;;;;;;;2.00;0.95;;;;;;;;;;5034945;28;20060;-79
2023/01/17 09:41:16;;;;;;;1.77;1.00;;;;;;;;;;5032255;28;20601;-78
2023/01/17 09:43:51;;;;;;;2.95;1.10;;;;;;;;;;5034319;28;20049;-78
2023/01/17 09:46:23;;;;;;;1.85;0.70;;;;;;;;;;5031534;28;20394;-78
2023/01/17 09:48:54;;;;;;;2.65;1.00;;;;;;;;;;5025019;28;20068;-78
2023/01/17 09:51:21;;;;;;;2.40;0.93;;;;;;;;;;5002826;28;20058;-80
2023/01/17 09:53:49;;;;;;;3.40;0.93;;;;;;;;;;5017339;28;20065;-79
2023/01/17 09:56:22;;;;;;;3.13;1.00;;;;;;;;;;5030865;28;20449;-80
2023/01/17 09:58:56;;;;;;;2.22;0.80;;;;;;;;;;5035073;28;20049;-80
2023/01/17 10:01:28;;;;;;;2.90;0.88;;;;;;;;;;5030052;28;20045;-79
2023/01/17 10:04:14;;;;;;;2.67;1.05;;;;;;;;;;5028707;28;20049;-79
2023/01/17 10:06:43;;;;;;;4.82;1.13;;;;;;;;;;5036282;28;20112;-80
2023/01/17 10:09:19;;;;;;;1.98;0.90;;;;;;;;;;5020265;28;20055;-80
2023/01/17 10:12:04;;;;;;;9.43;1.00;;;;;;;;;;5040216;28;20158;-80
2023/01/17 10:14:33;;;;;;;2.17;0.70;;;;;;;;;;5023320;28;20168;-80
2023/01/17 10:17:05;;;;;;;1.77;0.60;;;;;;;;;;5015756;28;20068;-80
2023/01/17 10:19:38;;;;;;;2.20;0.93;;;;;;;;;;5017519;28;20046;-80
2023/01/17 10:22:17;;;;;;;1.20;0.70;;;;;;;;;;5015310;28;20042;-81
2023/01/17 10:24:50;;;;;;;2.75;1.00;;;;;;;;;;5014929;28;20050;-80
2023/01/17 10:27:37;;;;;;;2.05;0.82;;;;;;;;;;4998829;28;20092;-81
2023/01/17 10:30:16;;;;;;;2.28;0.80;;;;;;;;;;5015834;28;20057;-80
2023/01/17 10:32:46;;;;;;;1.48;0.90;;;;;;;;;;5016521;28;20088;-79
2023/01/17 10:35:20;;;;;;;2.35;1.00;;;;;;;;;;5026405;28;20046;-80
2023/01/17 10:37:47;;;;;;;3.25;0.93;;;;;;;;;;5039546;28;20091;-80
2023/01/17 10:40:34;;;;;;;2.65;0.70;;;;;;;;;;5037366;28;20049;-80
2023/01/17 10:43:10;;;;;;;3.35;1.00;;;;;;;;;;5038459;28;20439;-79
2023/01/17 10:45:43;;;;;;;5.43;1.00;;;;;;;;;;5037439;28;20073;-80
2023/01/17 10:48:13;;;;;;;2.20;0.98;;;;;;;;;;5038873;28;20061;-79
2023/01/17 10:50:46;;;;;;;1.13;0.75;;;;;;;;;;5038403;28;20049;-79
2023/01/17 10:53:29;;;;;;;4.30;0.85;;;;;;;;;;5040388;28;20045;-80
2023/01/17 10:55:56;;;;;;;2.88;0.70;;;;;;;;;;5022641;28;20124;-79
2023/01/17 10:58:24;;;;;;;2.33;0.88;;;;;;;;;;5038217;28;20055;-79
2023/01/17 11:00:56;;;;;;;2.15;0.90;;;;;;;;;;5035585;28;20049;-81
2023/01/17 11:03:24;;;;;;;3.45;0.70;;;;;;;;;;5036733;28;20053;-80
2023/01/17 11:06:13;;;;;;;1.75;0.82;;;;;;;;;;5034986;28;20053;-81
2023/01/17 11:09:09;;;;;;;3.45;1.10;;;;;;;;;;5035737;28;20103;-80
2023/01/17 11:11:43;;;;;;;3.30;1.15;;;;;;;;;;5036358;28;20052;-80
2023/01/17 11:14:21;;;;;;;3.22;0.90;;;;;;;;;;5035180;28;20053;-78
2023/01/17 11:16:58;;;;;;;1.95;0.80;;;;;;;;;;5033454;28;20287;-80
2023/01/17 11:19:30;;;;;;;4.03;1.23;;;;;;;;;;5036461;28;20095;-80
2023/01/17 11:22:00;;;;;;;1.90;0.98;;;;;;;;;;5038022;28;20123;-79
2023/01/17 11:24:38;;;;;;;4.88;1.20;;;;;;;;;;5042325;28;20486;-79
2023/01/17 11:27:06;;;;;;;1.63;0.80;;;;;;;;;;5042772;28;20049;-80
2023/01/17 11:29:34;;;;;;;4.75;1.27;;;;;;;;;;5042884;28;20144;-78
2023/01/17 11:32:31;;;;;;;2.70;1.10;;;;;;;;;;5042430;28;20060;-79
2023/01/17 11:35:03;;;;;;;2.30;1.00;;;;;;;;;;5014439;28;20050;-79
2023/01/17 11:37:30;;;;;;;3.40;1.30;;;;;;;;;;5005233;28;20140;-80
2023/01/17 11:40:17;;;;;;;2.55;0.90;;;;;;;;;;5003994;28;20046;-79
2023/01/17 11:42:44;;;;;;;4.53;0.90;;;;;;;;;;5004672;28;20141;-80
2023/01/17 11:45:23;;;;;;;2.67;1.02;;;;;;;;;;5003450;28;20281;-79
2023/01/17 11:48:11;;;;;;;2.95;1.20;;;;;;;;;;5004819;28;20060;-79
2023/01/17 11:50:58;;;;;;;1.80;1.00;;;;;;;;;;5006008;28;20054;-81
2023/01/17 11:53:26;;;;;;;6.47;1.02;;;;;;;;;;5002941;28;20140;-79
2023/01/17 11:56:12;;;;;;;4.63;0.98;;;;;;;;;;4985171;28;20050;-80
2023/01/17 11:58:42;;;;;;;2.08;1.00;;;;;;;;;;5004835;28;20047;-78
2023/01/17 12:01:27;;;;;;;4.03;1.00;;;;;;;;;;5000419;28;20056;-79
2023/01/17 12:03:53;;;;;;;3.42;0.90;;;;;;;;;;5004309;28;20436;-79
2023/01/17 12:06:29;;;;;;;3.22;1.20;;;;;;;;;;5003115;28;20054;-79
2023/01/17 12:08:58;;;;;;;3.60;1.00;;;;;;;;;;5001230;28;20057;-78
2023/01/17 12:11:28;;;;;;;2.63;0.70;;;;;;;;;;5003353;28;20046;-80
2023/01/17 12:14:00;;;;;;;3.88;1.08;;;;;;;;;;5002270;28;20050;-80
2023/01/17 12:16:36;;;;;;;3.05;0.90;;;;;;;;;;5002253;28;20057;-80
2023/01/17 12:19:12;;;;;;;5.22;1.00;;;;;;;;;;5003835;28;20046;-79
2023/01/17 12:22:04;;;;;;;3.45;0.90;;;;;;;;;;5002228;28;20056;-80
2023/01/17 12:24:30;;;;;;;1.40;1.00;;;;;;;;;;4999543;28;20132;-79
2023/01/17 12:27:15;;;;;;;3.03;0.90;;;;;;;;;;5002650;28;20054;-80
2023/01/17 12:29:51;;;;;;;2.60;1.00;;;;;;;;;;5001532;28;20058;-80
2023/01/17 12:32:17;;;;;;;3.00;1.10;;;;;;;;;;5002700;28;20076;-79
2023/01/17 12:34:52;;;;;;;4.25;1.20;;;;;;;;;;5023736;28;20573;-80
2023/01/17 12:37:18;;;;;;;3.58;0.88;;;;;;;;;;5019755;28;20133;-81
2023/01/17 12:39:53;;;;;;;3.30;0.93;;;;;;;;;;5016984;28;20414;-80
2023/01/17 12:42:23;;;;;;;4.60;0.93;;;;;;;;;;5017777;28;20050;-80
2023/01/17 12:45:12;;;;;;;2.05;1.05;;;;;;;;;;5016026;28;20057;-79
2023/01/17 12:47:44;;;;;;;2.42;0.90;;;;;;;;;;5006818;28;20144;-80
2023/01/17 12:50:32;;;;;;;2.30;0.90;;;;;;;;;;5015567;28;20096;-79
2023/01/17 12:53:25;;;;;;;3.45;0.90;;;;;;;;;;5017419;28;20132;-79
2023/01/17 12:56:06;;;;;;;3.85;0.90;;;;;;;;;;5020835;28;20050;-80
2023/01/17 12:58:39;;;;;;;1.75;0.80;;;;;;;;;;5025248;28;20133;-78
2023/01/17 13:01:13;;;;;;;1.98;0.80;;;;;;;;;;5026793;28;20066;-80
2023/01/17 13:03:55;;;;;;;2.40;0.90;;;;;;;;;;5027034;28;20061;-79
2023/01/17 13:11:39;;;;;;;2.47;1.10;;;;;;;;;;5026812;28;20052;-80
2023/01/17 13:14:09;;;;;;;1.70;0.90;;;;;;;;;;5000615;28;20046;-79
2023/01/17 13:16:41;;;;;;;2.67;1.00;;;;;;;;;;5016570;28;20145;-79
2023/01/17 13:19:14;;;;;;;2.00;0.88;;;;;;;;;;5000973;28;20153;-80
2023/01/17 13:21:41;;;;;;;3.67;0.93;;;;;;;;;;5018431;28;20116;-80
2023/01/17 13:24:24;;;;;;;3.17;0.65;;;;;;;;;;4998926;28;20074;-80
2023/01/17 13:26:54;;;;;;;2.28;0.80;;;;;;;;;;5000715;28;20073;-79
2023/01/17 13:29:36;;;;;;;4.30;0.88;;;;;;;;;;5011719;28;20068;-80
2023/01/17 13:32:08;;;;;;;3.45;0.82;;;;;;;;;;5035313;28;20045;-79
2023/01/17 13:34:42;;;;;;;2.35;0.80;;;;;;;;;;5019843;28;20053;-80
2023/01/17 13:37:15;;;;;;;3.45;0.80;;;;;;;;;;5029179;28;20141;-78
2023/01/17 13:39:45;;;;;;;3.10;1.20;;;;;;;;;;5009711;28;20041;-79
2023/01/17 13:42:29;;;;;;;1.55;0.80;;;;;;;;;;5037128;28;20420;-80
2023/01/17 13:44:56;;;;;;;1.77;0.80;;;;;;;;;;5019472;28;20164;-80
2023/01/17 13:47:26;;;;;;;1.33;0.65;;;;;;;;;;5036038;28;20049;-80
2023/01/17 13:49:56;;;;;;;2.20;0.93;;;;;;;;;;5036407;28;20200;-80
2023/01/17 13:52:22;;;;;;;2.80;1.20;;;;;;;;;;5037064;28;20056;-79
2023/01/17 13:54:50;;;;;;;3.85;1.00;;;;;;;;;;5018073;28;20061;-80
2023/01/17 13:57:26;;;;;;;2.10;0.88;;;;;;;;;;5035723;28;20055;-79
2023/01/17 13:59:56;;;;;;;1.85;0.80;;;;;;;;;;5018548;28;20053;-80
2023/01/17 14:02:31;;;;;;;1.67;0.95;;;;;;;;;;5036553;28;20141;-80
2023/01/17 14:05:06;;;;;;;3.53;1.13;;;;;;;;;;5036217;28;20079;-80
2023/01/17 14:07:33;;;;;;;;;;;;;;;;;;5035737;28;20067;-80
2023/01/17 14:10:00;;;;;;;2.92;1.00;;;;;;;;;;5015735;28;19929;-80
2023/01/17 14:12:30;;;;;;;3.05;1.20;;;;;;;;;;5035836;28;20113;-77
2023/01/17 14:14:59;;;;;;;5.18;1.00;;;;;;;;;;5033759;28;20680;-80
2023/01/17 14:17:36;;;;;;;2.25;1.15;;;;;;;;;;5039166;28;20050;-79
2023/01/17 14:20:08;;;;;;;4.57;1.08;;;;;;;;;;5036938;28;20129;-80
2023/01/17 14:22:36;;;;;;;4.05;1.40;;;;;;;;;;5043135;28;20056;-81
2023/01/17 14:25:16;;;;;;;2.40;1.10;;;;;;;;;;5045780;28;20085;-81
2023/01/17 14:27:50;;;;;;;1.50;0.70;;;;;;;;;;5045314;28;20049;-81
2023/01/17 14:30:22;;;;;;;2.67;0.90;;;;;;;;;;5045892;28;20599;-79
2023/01/17 14:32:59;;;;;;;3.78;1.33;;;;;;;;;;5036419;28;20053;-79
2023/01/17 14:35:30;;;;;;;3.97;1.10;;;;;;;;;;5028705;28;20099;-79
2023/01/17 14:37:58;;;;;;;3.05;1.20;;;;;;;;;;5041550;28;20112;-79
2023/01/17 14:40:29;;;;;;;4.30;1.50;;;;;;;;;;5035530;28;20432;-79
2023/01/17 14:43:01;;;;;;;3.25;1.60;;;;;;;;;;5025677;28;20049;-79
2023/01/17 14:45:29;;;;;;;2.45;1.10;;;;;;;;;;5033898;28;20157;-79
2023/01/17 14:47:57;;;;;;;1.40;0.82;;;;;;;;;;5035283;28;20115;-79
2023/01/17 14:50:26;;;;;;;3.55;1.10;;;;;;;;;;5018855;28;20116;-80
2023/01/17 14:53:10;;;;;;;1.83;0.73;;;;;;;;;;5038119;28;20071;-80
2023/01/17 14:55:47;;;;;;;2.78;0.90;;;;;;;;;;5035932;28;20463;-80
2023/01/17 14:58:15;;;;;;;3.80;1.30;;;;;;;;;;5014720;28;20053;-78
2023/01/17 15:00:41;;;;;;;4.88;1.05;;;;;;;;;;5030272;28;20071;-79
2023/01/17 15:03:09;;;;;;;2.08;0.85;;;;;;;;;;5036620;28;20075;-79
2023/01/17 15:05:39;;;;;;;3.00;1.00;;;;;;;;;;5036838;28;20049;-79
2023/01/17 15:08:09;;;;;;;7.32;1.10;;;;;;;;;;5034141;28;20084;-79
2023/01/17 15:10:42;;;;;;;1.83;1.00;;;;;;;;;;5015799;28;20049;-79
2023/01/17 15:13:09;;;;;;;3.47;1.25;;;;;;;;;;5000735;28;20118;-79
2023/01/17 15:15:38;;;;;;;5.85;1.30;;;;;;;;;;5027915;28;20042;-79
2023/01/17 15:18:08;;;;;;;4.43;1.50;;;;;;;;;;5036567;28;20050;-80
2023/01/17 15:20:36;;;;;;;2.92;1.30;;;;;;;;;;5039838;28;20072;-80
2023/01/17 15:23:02;;;;;;;3.05;1.00;;;;;;;;;;5041112;28;20064;-79
2023/01/17 15:25:29;;;;;;;4.15;1.08;;;;;;;;;;5042470;28;20120;-80
2023/01/17 15:27:56;;;;;;;3.42;1.30;;;;;;;;;;5039468;28;20520;-79
2023/01/17 15:30:24;;;;;;;2.53;0.90;;;;;;;;;;5041782;28;20140;-79
2023/01/17 15:32:51;;;;;;;3.65;1.27;;;;;;;;;;5040369;28;20053;-80
2023/01/17 15:35:18;;;;;;;3.65;1.50;;;;;;;;;;5041201;28;20083;-80
2023/01/17 15:37:49;;;;;;;8.45;1.40;;;;;;;;;;5039471;28;20041;-79
2023/01/17 15:40:20;;;;;;;3.58;1.15;;;;;;;;;;5040063;28;20100;-79
2023/01/17 15:42:55;;;;;;;4.65;1.50;;;;;;;;;;5035193;28;20433;-79
2023/01/17 15:45:25;;;;;;;1.90;1.10;;;;;;;;;;5000183;28;20058;-80
2023/01/17 15:47:52;;;;;;;3.17;1.35;;;;;;;;;;5015946;28;20050;-79
2023/01/17 15:50:18;;;;;;;3.72;1.30;;;;;;;;;;5015928;28;20081;-78
2023/01/17 15:52:48;;;;;;;5.00;1.48;;;;;;;;;;5014605;28;20096;-79
2023/01/17 15:55:20;;;;;;;2.97;1.13;;;;;;;;;;5013426;28;20054;-78
2023/01/17 15:57:48;;;;;;;4.53;1.42;;;;;;;;;;4996089;28;20072;-80
2023/01/17 16:00:14;;;;;;;2.90;1.30;;;;;;;;;;5014022;28;20046;-79
2023/01/17 16:02:41;;;;;;;3.15;1.30;;;;;;;;;;5000223;28;20042;-79
2023/01/17 16:05:20;;;;;;;4.50;1.20;;;;;;;;;;5017051;28;20050;-79
2023/01/17 16:07:51;;;;;;;8.30;1.90;;;;;;;;;;5016804;28;20089;-80
2023/01/17 16:10:30;;;;;;;7.03;2.40;;;;;;;;;;5018016;28;20064;-80
2023/01/17 16:12:57;;;;;;;5.63;2.20;;;;;;;;;;5022306;28;20050;-79
2023/01/17 16:15:25;;;;;;;5.75;2.60;;;;;;;;;;5039060;28;20168;-79
2023/01/17 16:17:54;;;;;;;10.55;5.60;;;;;;;;;;5039663;28;20111;-80
2023/01/17 16:20:22;;;;;;;11.80;4.18;;;;;;;;;;5040245;28;20057;-80
2023/01/17 16:22:48;;;;;;;19.42;6.50;;;;;;;;;;5039005;28;20049;-79
2023/01/17 16:25:16;;;;;;;10.52;3.55;;;;;;;;;;5038200;28;20057;-80
2023/01/17 16:27:43;;;;;;;9.25;3.63;;;;;;;;;;5033179;28;20076;-80